Main page
METAR-TAF:

METAR-TAF

Airports :

Kulob Airport

Kulob, Tajikistan

latitude: 37-59-18N, longitude: 069-48-18E, elevation: 699 m

Current weather observation

The report was made 22 minutes ago, at 05:30 UTC
Wind 6 kt from the South/Southwest, varying between South/Southeast and West
Temperature 32°C
Humidity 20%
Pressure 1013 hPa
Visibility 10 km or more

METAR: UTDK 250530Z 20003MPS 160V260 9999 NSC 32/06 Q1013 R01/09//70 RMK QFE702/0936

Time: 10:52 (05:52 UTC)

Forecast

The report was made 2 hours and 52 minutes ago, at 03:00 UTC
Forecast valid from 25 at 04 UTC to 25 at 13 UTC
Wind 4 kt from variable directions
Visibility: 6000 m
Few clouds at a height of 6600 ft
Scattered clouds at a height of 13000 ft
Temporary
from 25 at 06 UTC to 25 at 13 UTC
Wind 14 kt from the South/Southwest

TAF: UTDK 250300Z 2504/2513 VRB02MPS 6000 FEW066 SCT130 TEMPO 2506/2513 21007MPS

Weather observations and forecasts of more than 4000 airports (METAR and TAF reports).

The available stations are represented by yellow and red dots on the map.

Hover mouse over dot to see the name of the station.

Then click to see weather observations and forecasts.

To change the map : click on the green buttons with a black cross to zoom in, on the green button with a dash to zoom out, or on the green arrows for adjacent maps.


METAR-TAF: